Time;durP1;ratioP1;P1;durP2;ratioP2;P2;SDS_P1;SDS_P2;PMS_P1;PMS_P2;Temp;Humidity;BMP_temperature;BMP_pressure;BME280_temperature;BME280_humidity;BME280_pressure;Samples;Min_cycle;Max_cycle;Signal;HPM_P1;HPM_P2
2022/08/02 00:01:50;;;;;;;3.47;1.67;;;18.30;99.90;;;;;;5047853;28;20386;-84
2022/08/02 00:04:16;;;;;;;2.77;1.67;;;18.30;99.90;;;;;;5070811;28;20369;-84
2022/08/02 00:06:42;;;;;;;3.75;2.20;;;18.30;99.90;;;;;;5068621;28;20368;-85
2022/08/02 00:09:07;;;;;;;4.07;1.70;;;18.40;99.90;;;;;;5067492;28;20855;-85
2022/08/02 00:11:33;;;;;;;4.97;2.10;;;18.30;99.90;;;;;;5067885;28;20386;-84
2022/08/02 00:13:59;;;;;;;4.88;2.13;;;18.30;99.90;;;;;;5067661;28;20726;-85
2022/08/02 00:16:25;;;;;;;4.20;1.83;;;18.40;99.90;;;;;;5065703;28;20807;-86
2022/08/02 00:18:52;;;;;;;4.97;1.90;;;18.30;99.90;;;;;;5061166;28;20391;-85
2022/08/02 00:21:18;;;;;;;4.43;1.90;;;18.40;99.90;;;;;;5065630;28;20370;-84
2022/08/02 00:23:44;;;;;;;3.95;1.70;;;18.40;99.90;;;;;;5043080;28;20474;-84
2022/08/02 00:26:09;;;;;;;6.40;2.10;;;18.30;99.90;;;;;;5060446;28;20407;-85
2022/08/02 00:28:35;;;;;;;4.77;1.90;;;18.30;99.90;;;;;;5066127;28;20389;-85
2022/08/02 00:31:02;;;;;;;3.05;1.92;;;18.20;99.90;;;;;;5043181;28;20523;-85
2022/08/02 00:33:28;;;;;;;3.97;1.90;;;18.20;99.90;;;;;;5063191;28;20398;-85
2022/08/02 00:35:53;;;;;;;5.88;2.10;;;18.20;99.90;;;;;;5060305;28;20412;-85
2022/08/02 00:38:19;;;;;;;4.97;1.75;;;18.20;99.90;;;;;;5064318;28;20489;-84
2022/08/02 00:40:50;;;;;;;3.87;2.07;;;18.20;99.90;;;;;;5065705;28;20393;-85
2022/08/02 00:43:16;;;;;;;6.90;2.10;;;18.20;99.90;;;;;;5066373;28;20405;-84
2022/08/02 00:45:42;;;;;;;5.75;2.15;;;18.10;99.90;;;;;;5038697;28;20398;-85
2022/08/02 00:48:17;;;;;;;4.45;2.00;;;18.20;99.90;;;;;;5068443;28;20466;-85
2022/08/02 00:50:43;;;;;;;3.78;2.10;;;18.20;99.90;;;;;;5047104;28;20399;-85
2022/08/02 00:53:09;;;;;;;4.47;1.90;;;18.10;99.90;;;;;;5057940;28;20388;-84
2022/08/02 00:55:36;;;;;;;4.87;2.23;;;18.10;99.90;;;;;;5063172;28;20395;-85
2022/08/02 00:58:02;;;;;;;4.93;2.10;;;18.20;99.90;;;;;;5061671;28;20461;-84
2022/08/02 01:00:28;;;;;;;5.15;2.15;;;18.20;99.90;;;;;;5041237;28;20386;-84
2022/08/02 01:02:53;;;;;;;4.47;2.00;;;18.30;99.90;;;;;;5064351;28;20367;-84
2022/08/02 01:05:19;;;;;;;5.17;2.40;;;18.20;99.90;;;;;;5065752;28;20381;-84
2022/08/02 01:07:45;;;;;;;7.45;2.35;;;18.20;99.90;;;;;;5050446;28;20372;-83
2022/08/02 01:10:11;;;;;;;3.87;1.90;;;18.20;99.90;;;;;;5036229;28;20861;-85
2022/08/02 01:12:36;;;;;;;5.28;2.30;;;18.10;99.90;;;;;;5048458;28;20760;-85
2022/08/02 01:15:09;;;;;;;4.72;1.75;;;18.10;99.90;;;;;;5063665;28;20900;-86
2022/08/02 01:17:55;;;;;;;4.28;2.03;;;18.10;99.90;;;;;;5039305;28;20385;-85
2022/08/02 01:20:45;;;;;;;5.75;2.08;;;18.10;99.90;;;;;;5058296;28;20403;-85
2022/08/02 01:23:20;;;;;;;5.25;2.42;;;18.10;99.90;;;;;;5054234;28;20448;-85
2022/08/02 01:26:07;;;;;;;4.65;1.80;;;18.10;99.90;;;;;;5048025;28;20372;-85
2022/08/02 01:29:01;;;;;;;4.50;1.90;;;18.10;99.90;;;;;;5055572;28;20383;-86
2022/08/02 01:31:37;;;;;;;4.90;2.00;;;18.10;99.90;;;;;;5045600;28;20406;-85
2022/08/02 01:34:23;;;;;;;4.13;2.20;;;18.00;99.90;;;;;;5049492;28;20362;-84
2022/08/02 01:37:14;;;;;;;5.57;2.40;;;18.00;99.90;;;;;;5060936;28;20380;-85
2022/08/02 01:39:47;;;;;;;5.75;2.15;;;18.00;99.90;;;;;;5054426;28;20384;-84
2022/08/02 01:42:14;;;;;;;5.40;2.17;;;17.90;99.90;;;;;;5073900;28;20431;-84
2022/08/02 01:44:42;;;;;;;4.72;2.38;;;17.80;99.90;;;;;;5057822;28;20362;-84
2022/08/02 01:47:16;;;;;;;3.15;1.80;;;17.70;99.90;;;;;;5074413;28;20378;-84
2022/08/02 01:49:51;;;;;;;5.75;2.33;;;17.70;99.90;;;;;;5075939;28;20394;-84
2022/08/02 01:52:20;;;;;;;3.92;2.10;;;17.60;99.90;;;;;;5073214;28;20362;-85
2022/08/02 01:54:55;;;;;;;6.45;2.13;;;17.40;99.90;;;;;;5054616;28;20459;-85
2022/08/02 01:57:23;;;;;;;3.78;2.00;;;17.30;99.90;;;;;;5073260;28;20383;-84
2022/08/02 01:59:50;;;;;;;4.22;2.20;;;17.20;99.90;;;;;;5053963;28;20378;-85
2022/08/02 02:02:17;;;;;;;6.13;2.20;;;17.10;99.90;;;;;;5052295;28;20424;-84
2022/08/02 02:04:45;;;;;;;6.72;2.72;;;17.00;99.90;;;;;;5053111;28;20446;-83
2022/08/02 02:07:14;;;;;;;7.40;2.45;;;16.80;99.90;;;;;;5038320;28;20396;-84
2022/08/02 02:09:43;;;;;;;5.17;2.37;;;16.70;99.90;;;;;;5036501;28;20391;-84
2022/08/02 02:12:12;;;;;;;6.72;2.67;;;16.70;99.90;;;;;;5071797;28;20378;-84
2022/08/02 02:14:39;;;;;;;4.20;2.03;;;16.60;99.90;;;;;;5074493;28;20366;-85
2022/08/02 02:17:07;;;;;;;5.70;2.40;;;16.60;99.90;;;;;;5053534;28;20398;-84
2022/08/02 02:19:34;;;;;;;5.00;2.47;;;16.60;99.90;;;;;;5055874;28;20432;-84
2022/08/02 02:22:00;;;;;;;5.32;2.17;;;16.60;99.90;;;;;;5056094;28;20856;-84
2022/08/02 02:24:26;;;;;;;5.38;2.22;;;16.60;99.90;;;;;;5055610;28;20382;-84
2022/08/02 02:26:52;;;;;;;4.72;2.50;;;16.60;99.90;;;;;;5055331;28;20367;-84
2022/08/02 02:29:21;;;;;;;6.97;2.85;;;16.60;99.90;;;;;;5054161;28;20886;-84
2022/08/02 02:31:48;;;;;;;6.03;2.40;;;16.70;99.90;;;;;;5052813;28;20386;-84
2022/08/02 02:34:22;;;;;;;4.03;2.40;;;16.70;99.90;;;;;;5072129;28;20370;-84
2022/08/02 02:36:53;;;;;;;5.43;2.30;;;16.70;99.90;;;;;;5058897;28;20382;-85
2022/08/02 02:39:22;;;;;;;6.03;2.10;;;16.80;99.90;;;;;;5075912;28;20366;-84
2022/08/02 02:41:50;;;;;;;7.70;3.00;;;16.90;99.90;;;;;;5058645;28;20374;-85
2022/08/02 02:44:19;;;;;;;5.63;2.63;;;16.80;99.90;;;;;;5075299;28;20737;-83
2022/08/02 02:46:48;;;;;;;8.60;2.50;;;16.80;99.90;;;;;;5075645;28;20461;-84
2022/08/02 02:49:15;;;;;;;5.10;2.40;;;16.70;99.90;;;;;;5059214;28;20894;-84
2022/08/02 02:51:41;;;;;;;5.68;2.28;;;16.60;99.90;;;;;;5077956;28;20394;-83
2022/08/02 02:54:10;;;;;;;7.13;2.50;;;16.60;99.90;;;;;;5078573;28;20419;-81
2022/08/02 02:56:37;;;;;;;6.38;2.58;;;16.50;99.90;;;;;;5075185;28;20443;-84
2022/08/02 02:59:04;;;;;;;6.70;2.83;;;16.50;99.90;;;;;;5055767;28;20782;-85
2022/08/02 03:01:30;;;;;;;4.90;2.60;;;16.40;99.90;;;;;;5057528;28;20450;-84
2022/08/02 03:04:00;;;;;;;7.47;3.00;;;16.30;99.90;;;;;;5058198;28;20370;-84
2022/08/02 03:06:26;;;;;;;5.77;2.50;;;16.20;99.90;;;;;;5079725;28;20374;-84
2022/08/02 03:08:52;;;;;;;6.88;2.80;;;16.20;99.90;;;;;;5070960;28;21123;-83
2022/08/02 03:11:18;;;;;;;6.57;2.53;;;16.10;99.90;;;;;;5073348;28;20394;-82
2022/08/02 03:13:44;;;;;;;7.23;3.13;;;16.00;99.90;;;;;;5058869;28;20781;-84
2022/08/02 03:16:11;;;;;;;5.75;2.70;;;15.90;99.90;;;;;;5061223;28;20895;-83
2022/08/02 03:18:43;;;;;;;4.87;2.37;;;15.80;99.90;;;;;;5076940;28;20377;-84
2022/08/02 03:21:13;;;;;;;6.38;2.90;;;15.70;99.90;;;;;;5079650;28;20366;-83
2022/08/02 03:23:40;;;;;;;5.95;2.78;;;15.60;99.90;;;;;;5077600;28;20713;-84
2022/08/02 03:26:07;;;;;;;7.07;3.03;;;15.50;99.90;;;;;;5058708;28;20868;-84
2022/08/02 03:28:33;;;;;;;6.63;3.10;;;15.40;99.90;;;;;;5078350;28;20382;-82
2022/08/02 03:30:59;;;;;;;7.53;3.08;;;15.40;99.90;;;;;;5077731;28;20370;-83
2022/08/02 03:33:25;;;;;;;6.40;2.80;;;15.20;99.90;;;;;;5058536;28;20377;-84
2022/08/02 03:35:55;;;;;;;6.90;3.08;;;15.10;99.90;;;;;;5076671;28;20394;-83
2022/08/02 03:38:22;;;;;;;5.97;2.78;;;15.00;99.90;;;;;;5076677;28;20374;-83
2022/08/02 03:40:49;;;;;;;22.63;5.07;;;15.00;99.90;;;;;;5075759;28;20418;-83
2022/08/02 03:43:16;;;;;;;55.37;8.17;;;14.90;99.90;;;;;;5075227;28;20374;-83
2022/08/02 03:45:44;;;;;;;26.92;4.95;;;14.80;99.90;;;;;;5075936;28;20404;-83
2022/08/02 03:48:11;;;;;;;15.40;3.47;;;14.70;99.90;;;;;;5059265;28;20408;-84
2022/08/02 03:50:38;;;;;;;24.00;4.32;;;14.70;99.90;;;;;;5076458;28;20389;-83
2022/08/02 03:53:06;;;;;;;10.70;3.75;;;14.70;99.90;;;;;;5076824;28;20427;-84
2022/08/02 03:55:32;;;;;;;14.57;3.75;;;14.70;99.90;;;;;;5058165;28;21021;-84
2022/08/02 03:57:58;;;;;;;12.25;3.75;;;14.70;99.90;;;;;;5058766;28;20389;-83
2022/08/02 04:00:24;;;;;;;7.18;3.58;;;14.60;99.90;;;;;;5076772;28;20382;-83
2022/08/02 04:02:50;;;;;;;6.75;3.33;;;14.70;99.90;;;;;;5074254;28;20471;-82
2022/08/02 04:05:16;;;;;;;10.68;3.40;;;14.60;99.90;;;;;;5039173;28;20367;-84
2022/08/02 04:07:42;;;;;;;9.38;3.20;;;14.50;99.90;;;;;;5055014;28;20387;-83
2022/08/02 04:10:09;;;;;;;6.82;3.00;;;14.50;99.90;;;;;;5057509;28;20429;-83
2022/08/02 04:12:35;;;;;;;8.80;3.40;;;14.50;99.90;;;;;;5077244;28;20370;-84
2022/08/02 04:15:02;;;;;;;9.27;3.58;;;14.60;99.90;;;;;;5057353;28;20398;-83
2022/08/02 04:17:32;;;;;;;9.43;3.30;;;14.60;99.90;;;;;;5077435;28;20431;-83
2022/08/02 04:20:09;;;;;;;10.15;3.58;;;14.60;99.90;;;;;;5075348;28;20461;-83
2022/08/02 04:22:41;;;;;;;10.40;3.38;;;14.60;99.90;;;;;;5056642;28;20492;-83
2022/08/02 04:25:09;;;;;;;7.32;3.05;;;14.60;99.90;;;;;;5060006;28;20369;-83
2022/08/02 04:27:36;;;;;;;8.07;3.15;;;14.70;99.90;;;;;;5057217;28;20386;-82
2022/08/02 04:30:04;;;;;;;9.70;3.00;;;14.80;99.90;;;;;;5075784;28;20370;-84
2022/08/02 04:32:31;;;;;;;8.68;3.30;;;14.90;99.90;;;;;;5076087;28;20385;-83
2022/08/02 04:34:57;;;;;;;6.55;3.20;;;15.10;99.90;;;;;;5058806;28;20386;-83
2022/08/02 04:37:25;;;;;;;11.85;3.60;;;15.20;99.90;;;;;;5074877;28;21022;-83
2022/08/02 04:39:50;;;;;;;7.95;3.03;;;15.40;99.90;;;;;;5075405;28;20476;-83
2022/08/02 04:42:24;;;;;;;13.07;3.47;;;15.50;99.90;;;;;;5075698;28;20370;-83
2022/08/02 04:44:50;;;;;;;13.50;3.75;;;15.70;99.90;;;;;;5076333;28;20420;-83
2022/08/02 04:47:17;;;;;;;19.95;4.30;;;15.90;99.90;;;;;;5058098;28;20378;-84
2022/08/02 04:49:42;;;;;;;13.35;3.40;;;16.20;99.90;;;;;;5077044;28;20446;-83
2022/08/02 04:52:08;;;;;;;11.80;3.27;;;16.30;99.90;;;;;;5076849;28;20390;-84
2022/08/02 04:54:34;;;;;;;10.00;3.00;;;16.60;99.90;;;;;;5076442;28;20377;-83
2022/08/02 04:56:59;;;;;;;9.60;3.30;;;16.70;99.90;;;;;;5077010;28;20362;-84
2022/08/02 04:59:25;;;;;;;11.73;3.67;;;16.80;99.90;;;;;;5077713;28;20451;-84
2022/08/02 05:01:51;;;;;;;8.20;3.10;;;16.80;99.90;;;;;;5074784;28;20366;-83
2022/08/02 05:04:17;;;;;;;13.18;3.63;;;17.00;99.90;;;;;;5055948;28;20390;-83
2022/08/02 05:06:42;;;;;;;24.90;4.80;;;17.30;99.90;;;;;;5058354;28;20370;-84
2022/08/02 05:09:08;;;;;;;26.52;4.65;;;17.40;99.90;;;;;;5077043;28;20381;-83
2022/08/02 05:11:34;;;;;;;8.60;2.90;;;17.70;99.90;;;;;;5057293;28;20436;-84
2022/08/02 05:13:59;;;;;;;10.07;3.22;;;17.80;99.90;;;;;;5054231;28;20398;-84
2022/08/02 05:16:26;;;;;;;9.17;3.30;;;18.00;99.90;;;;;;5058169;28;20424;-84
2022/08/02 05:18:52;;;;;;;6.35;2.72;;;18.00;99.90;;;;;;5073675;28;20439;-83
2022/08/02 05:21:18;;;;;;;9.80;3.20;;;18.00;99.90;;;;;;5073109;28;20840;-84
2022/08/02 05:23:43;;;;;;;7.57;3.13;;;18.00;99.90;;;;;;5055719;28;20813;-84
2022/08/02 05:26:09;;;;;;;8.38;2.70;;;18.10;99.90;;;;;;5057258;28;20460;-83
2022/08/02 05:28:35;;;;;;;8.57;3.30;;;18.10;99.90;;;;;;5074707;28;20381;-83
2022/08/02 05:31:00;;;;;;;5.88;2.80;;;18.20;99.90;;;;;;5075895;28;20735;-83
2022/08/02 05:33:26;;;;;;;11.87;3.10;;;18.30;99.90;;;;;;5073989;28;20869;-83
2022/08/02 05:35:57;;;;;;;11.05;3.20;;;18.30;99.90;;;;;;5036895;28;20392;-83
2022/08/02 05:38:23;;;;;;;7.78;2.50;;;18.30;99.90;;;;;;5056929;28;20370;-84
2022/08/02 05:40:49;;;;;;;10.20;3.22;;;18.40;99.90;;;;;;5074761;28;20382;-82
2022/08/02 05:43:15;;;;;;;10.63;3.53;;;18.50;99.90;;;;;;5056867;28;20374;-83
2022/08/02 05:45:41;;;;;;;10.50;2.80;;;18.60;99.90;;;;;;5058244;28;20377;-84
2022/08/02 05:48:07;;;;;;;9.18;2.83;;;18.90;99.90;;;;;;5056320;28;20378;-85
2022/08/02 05:50:38;;;;;;;12.25;3.17;;;19.00;99.90;;;;;;5056972;28;20411;-83
2022/08/02 05:53:18;;;;;;;7.53;3.07;;;19.10;99.90;;;;;;5072161;28;20366;-83
2022/08/02 05:56:06;;;;;;;8.43;2.90;;;19.20;99.90;;;;;;5073991;28;20393;-83
2022/08/02 05:58:45;;;;;;;8.37;3.03;;;19.40;99.90;;;;;;5073277;28;20377;-83
2022/08/02 06:01:16;;;;;;;7.03;2.83;;;19.60;99.90;;;;;;5057598;28;20918;-83
2022/08/02 06:03:50;;;;;;;9.38;3.00;;;19.60;99.90;;;;;;5073193;28;20443;-85
2022/08/02 06:06:22;;;;;;;8.15;2.80;;;19.70;99.90;;;;;;5072685;28;20369;-86
2022/08/02 06:08:58;;;;;;;8.68;2.97;;;19.80;99.90;;;;;;5059456;28;20671;-82
2022/08/02 06:11:37;;;;;;;9.73;2.90;;;19.80;99.90;;;;;;5059012;28;20381;-84
2022/08/02 06:14:05;;;;;;;9.10;3.03;;;20.10;99.90;;;;;;5060549;28;20947;-84
2022/08/02 06:16:31;;;;;;;9.90;2.92;;;20.20;99.90;;;;;;5059333;28;20823;-84
2022/08/02 06:19:00;;;;;;;7.57;2.53;;;20.30;99.90;;;;;;5078963;28;20374;-86
2022/08/02 06:21:27;;;;;;;10.35;3.03;;;20.50;99.90;;;;;;5060110;28;20391;-85
2022/08/02 06:23:57;;;;;;;10.77;2.90;;;20.60;99.90;;;;;;5040222;28;20371;-84
2022/08/02 06:26:23;;;;;;;8.50;3.28;;;20.60;99.90;;;;;;5054713;28;20388;-84
2022/08/02 06:28:51;;;;;;;11.25;3.42;;;20.70;99.90;;;;;;5048097;28;20376;-84
2022/08/02 06:31:18;;;;;;;9.55;3.10;;;20.80;99.90;;;;;;5044311;28;20387;-84
2022/08/02 06:33:46;;;;;;;6.22;2.33;;;20.90;99.90;;;;;;5052969;28;20880;-84
2022/08/02 06:36:18;;;;;;;8.48;2.90;;;21.00;99.90;;;;;;5076375;28;20467;-85
2022/08/02 06:38:55;;;;;;;9.43;3.00;;;21.10;99.90;;;;;;5074912;28;20377;-84
2022/08/02 06:41:44;;;;;;;9.50;2.90;;;21.20;99.90;;;;;;5078497;28;20374;-85
2022/08/02 06:44:11;;;;;;;10.35;2.90;;;21.60;99.90;;;;;;5075463;28;20400;-83
2022/08/02 06:46:41;;;;;;;8.13;2.80;;;22.00;99.90;;;;;;5059877;28;20717;-84
2022/08/02 06:49:07;;;;;;;7.72;2.35;;;22.50;99.90;;;;;;5057023;28;21254;-83
2022/08/02 06:51:33;;;;;;;7.82;2.75;;;22.70;99.90;;;;;;5055883;28;20396;-84
2022/08/02 06:53:59;;;;;;;6.35;2.20;;;22.80;99.90;;;;;;5056827;28;20904;-84
2022/08/02 06:56:25;;;;;;;7.75;2.60;;;23.10;99.90;;;;;;5073308;28;20486;-85
2022/08/02 06:58:50;;;;;;;6.63;2.50;;;23.50;99.90;;;;;;5055755;28;20461;-85
2022/08/02 07:01:20;;;;;;;6.50;2.20;;;23.70;99.90;;;;;;5060386;28;20385;-83
2022/08/02 07:03:48;;;;;;;4.30;1.90;;;23.70;99.90;;;;;;5075762;28;20382;-85
2022/08/02 07:06:20;;;;;;;5.22;1.88;;;23.60;99.60;;;;;;5059324;28;20382;-86
2022/08/02 07:08:46;;;;;;;6.30;2.00;;;23.50;99.90;;;;;;5078267;28;20378;-84
2022/08/02 07:11:11;;;;;;;6.60;2.17;;;23.60;99.90;;;;;;5058708;28;20385;-85
2022/08/02 07:13:37;;;;;;;5.57;2.13;;;23.70;99.40;;;;;;5076919;28;20876;-85
2022/08/02 07:16:04;;;;;;;6.27;2.20;;;23.80;99.30;;;;;;5078015;28;20480;-84
2022/08/02 07:18:30;;;;;;;8.38;2.10;;;23.90;99.70;;;;;;5075024;28;20366;-86
2022/08/02 07:21:04;;;;;;;11.17;2.23;;;24.00;98.70;;;;;;5057433;28;20709;-85
2022/08/02 07:23:29;;;;;;;9.63;2.28;;;24.10;99.10;;;;;;5058754;28;20419;-86
2022/08/02 07:25:57;;;;;;;5.67;1.87;;;24.20;99.80;;;;;;5058530;28;20403;-83
2022/08/02 07:28:23;;;;;;;7.00;2.47;;;24.20;99.10;;;;;;5075899;28;20913;-84
2022/08/02 07:30:52;;;;;;;7.15;2.15;;;24.10;98.60;;;;;;5076383;28;20374;-84
2022/08/02 07:33:17;;;;;;;6.70;1.83;;;23.90;98.80;;;;;;5077259;28;20369;-84
2022/08/02 07:35:43;;;;;;;5.40;1.83;;;23.80;98.30;;;;;;5061592;28;20390;-82
2022/08/02 07:38:09;;;;;;;7.90;1.92;;;23.90;98.80;;;;;;5052592;28;20388;-84
2022/08/02 07:40:35;;;;;;;7.03;2.10;;;24.10;99.20;;;;;;5039672;28;20372;-83
2022/08/02 07:43:00;;;;;;;6.63;2.03;;;24.20;98.00;;;;;;5077202;28;20367;-85
2022/08/02 07:45:27;;;;;;;6.40;2.40;;;24.30;98.80;;;;;;5058752;28;20366;-85
2022/08/02 07:48:00;;;;;;;6.03;1.88;;;24.40;97.90;;;;;;5041494;28;20921;-84
2022/08/02 07:50:27;;;;;;;5.75;1.70;;;24.50;98.10;;;;;;5075907;28;20477;-86
2022/08/02 07:52:52;;;;;;;6.65;2.25;;;24.60;97.00;;;;;;5055148;28;20374;-84
2022/08/02 07:55:18;;;;;;;10.67;2.23;;;24.50;97.80;;;;;;5054377;28;20792;-85
2022/08/02 07:57:45;;;;;;;7.17;2.30;;;24.70;97.00;;;;;;5055876;28;20377;-85
2022/08/02 08:00:11;;;;;;;7.20;2.25;;;24.70;97.20;;;;;;5056446;28;20396;-85
2022/08/02 08:02:37;;;;;;;7.25;2.45;;;24.90;97.70;;;;;;5056399;28;20416;-85
2022/08/02 08:05:05;;;;;;;8.30;2.17;;;25.00;97.30;;;;;;5058057;28;20469;-86
2022/08/02 08:07:31;;;;;;;7.10;2.20;;;25.20;96.40;;;;;;5072753;28;20409;-85
2022/08/02 08:09:58;;;;;;;8.07;2.33;;;24.90;95.70;;;;;;5076780;28;20374;-84
2022/08/02 08:12:28;;;;;;;10.43;2.80;;;24.60;96.60;;;;;;5061346;28;20389;-85
2022/08/02 08:14:59;;;;;;;6.72;2.08;;;24.40;96.20;;;;;;5062275;28;20409;-86
2022/08/02 08:17:25;;;;;;;6.75;2.30;;;24.30;96.60;;;;;;5077854;28;20366;-85
2022/08/02 08:19:51;;;;;;;8.20;2.63;;;24.20;97.10;;;;;;5059149;28;20387;-83
2022/08/02 08:22:17;;;;;;;5.37;2.20;;;24.40;98.10;;;;;;5084966;28;20357;-84
2022/08/02 08:24:47;;;;;;;7.80;2.60;;;24.60;97.30;;;;;;5056866;28;20370;-84
2022/08/02 08:27:14;;;;;;;6.30;2.28;;;24.60;95.80;;;;;;5075030;28;20362;-83
2022/08/02 08:29:41;;;;;;;6.97;2.10;;;24.70;96.90;;;;;;5058559;28;20898;-84
2022/08/02 08:32:07;;;;;;;6.07;2.10;;;24.90;97.00;;;;;;5053880;28;20805;-84
2022/08/02 08:34:33;;;;;;;7.25;2.58;;;25.00;95.90;;;;;;5073527;28;20457;-86
2022/08/02 08:36:59;;;;;;;6.43;2.50;;;25.10;96.00;;;;;;5074921;28;20397;-84
2022/08/02 08:39:25;;;;;;;4.90;2.10;;;25.40;96.50;;;;;;5058960;28;20405;-84
2022/08/02 08:41:50;;;;;;;5.97;2.45;;;25.50;95.00;;;;;;5071670;28;20373;-84
2022/08/02 08:44:16;;;;;;;7.63;2.10;;;25.50;94.90;;;;;;5073063;28;20362;-82
2022/08/02 08:46:43;;;;;;;8.07;2.13;;;25.60;94.70;;;;;;5057740;28;20394;-87
2022/08/02 08:49:11;;;;;;;7.45;2.20;;;25.50;94.20;;;;;;5055466;28;20434;-86
2022/08/02 08:51:40;;;;;;;5.70;2.03;;;25.30;95.40;;;;;;5056683;28;20453;-84
2022/08/02 08:54:11;;;;;;;7.43;2.15;;;25.20;95.60;;;;;;5055190;28;20877;-86
2022/08/02 08:56:38;;;;;;;5.40;2.15;;;25.10;94.80;;;;;;5057189;28;20405;-85
2022/08/02 08:59:10;;;;;;;5.45;2.10;;;24.90;96.00;;;;;;5074485;28;20376;-85
2022/08/02 09:01:38;;;;;;;6.95;2.47;;;24.90;95.80;;;;;;5076314;28;20366;-85
2022/08/02 09:04:07;;;;;;;6.90;2.00;;;24.70;95.70;;;;;;5057438;28;20439;-86
2022/08/02 09:06:57;;;;;;;;;;;;;;;;;;;;;
2022/08/02 09:09:23;;;;;;;6.72;2.33;;;24.90;96.20;;;;;;5078387;28;20457;-84
2022/08/02 09:11:49;;;;;;;7.90;2.40;;;24.80;96.30;;;;;;5057178;28;20402;-83
2022/08/02 09:14:27;;;;;;;9.68;2.42;;;25.00;95.40;;;;;;5073923;28;20423;-86
2022/08/02 09:17:04;;;;;;;7.00;2.30;;;25.20;95.80;;;;;;5054219;28;20402;-84
2022/08/02 09:19:35;;;;;;;8.40;2.30;;;25.30;96.00;;;;;;5073055;28;20362;-85
2022/08/02 09:22:06;;;;;;;6.85;2.25;;;25.50;95.20;;;;;;5055965;28;20947;-86
2022/08/02 09:24:47;;;;;;;6.38;2.50;;;25.60;95.20;;;;;;5055179;28;20405;-85
2022/08/02 09:27:17;;;;;;;6.68;2.20;;;25.50;94.60;;;;;;5055148;28;20373;-84
2022/08/02 09:29:48;;;;;;;5.90;2.22;;;25.50;95.20;;;;;;5055271;28;20373;-85
2022/08/02 09:32:16;;;;;;;14.88;3.13;;;25.70;94.90;;;;;;5054821;28;21024;-84
2022/08/02 09:34:50;;;;;;;7.13;1.80;;;25.90;94.80;;;;;;5055100;28;20374;-84
2022/08/02 09:37:30;;;;;;;9.63;2.63;;;26.00;94.90;;;;;;5054698;28;20934;-86
2022/08/02 09:40:03;;;;;;;3.78;1.60;;;26.10;94.50;;;;;;5073202;28;20366;-85
2022/08/02 09:42:29;;;;;;;4.10;1.77;;;26.30;94.20;;;;;;5056619;28;20378;-87
2022/08/02 09:45:00;;;;;;;4.97;1.80;;;26.40;95.00;;;;;;5073888;28;20373;-84
2022/08/02 09:47:27;;;;;;;6.82;1.98;;;26.30;93.30;;;;;;5057403;28;20406;-84
2022/08/02 09:49:54;;;;;;;6.85;1.85;;;26.40;94.30;;;;;;5074802;28;20370;-84
2022/08/02 09:52:35;;;;;;;7.22;2.20;;;26.40;94.10;;;;;;5056899;28;20366;-84
2022/08/02 09:55:05;;;;;;;8.47;2.10;;;26.40;94.10;;;;;;5057082;28;20435;-83
2022/08/02 09:57:37;;;;;;;5.43;1.85;;;26.70;94.10;;;;;;5073499;28;20374;-85
2022/08/02 10:00:09;;;;;;;3.67;1.65;;;26.80;94.00;;;;;;5072752;28;20366;-84
2022/08/02 10:02:34;;;;;;;4.03;1.70;;;27.00;93.70;;;;;;5055288;28;20374;-85
2022/08/02 10:05:00;;;;;;;4.78;1.85;;;26.90;93.70;;;;;;5074191;28;20451;-84
2022/08/02 10:07:26;;;;;;;6.15;1.88;;;26.50;93.20;;;;;;5055675;28;20449;-84
2022/08/02 10:09:51;;;;;;;7.17;2.03;;;26.40;93.80;;;;;;5073396;28;20412;-85
2022/08/02 10:12:19;;;;;;;3.97;1.70;;;26.50;93.70;;;;;;5054416;28;20446;-84
2022/08/02 10:14:48;;;;;;;5.63;1.90;;;26.50;93.50;;;;;;5054086;28;20382;-85
2022/08/02 10:17:15;;;;;;;7.60;2.40;;;26.60;93.10;;;;;;5054646;28;20412;-83
2022/08/02 10:19:40;;;;;;;7.93;2.10;;;26.70;93.20;;;;;;5072423;28;20365;-86
2022/08/02 10:22:11;;;;;;;6.40;2.17;;;26.80;93.30;;;;;;5053744;28;20450;-83
2022/08/02 10:24:48;;;;;;;5.75;1.63;;;27.00;93.90;;;;;;5056287;28;20396;-87
2022/08/02 10:27:16;;;;;;;8.85;2.10;;;27.40;92.30;;;;;;5054723;28;20369;-84
2022/08/02 10:29:45;;;;;;;4.82;1.83;;;27.50;93.10;;;;;;5073390;28;20857;-87
2022/08/02 10:32:36;;;;;;;8.35;2.03;;;27.50;92.30;;;;;;5074039;28;20370;-85
2022/08/02 10:35:15;;;;;;;5.45;1.80;;;27.50;92.40;;;;;;5054396;28;20400;-84
2022/08/02 10:37:49;;;;;;;5.32;1.80;;;27.40;92.10;;;;;;5054265;28;20744;-85
2022/08/02 10:40:25;;;;;;;5.13;1.63;;;27.30;91.90;;;;;;5055836;28;20366;-87
2022/08/02 10:42:58;;;;;;;3.80;1.70;;;27.20;92.20;;;;;;5050867;28;20368;-84
2022/08/02 10:45:24;;;;;;;7.95;2.30;;;27.10;92.90;;;;;;5051719;28;20475;-84
2022/08/02 10:48:01;;;;;;;4.90;2.05;;;27.20;92.20;;;;;;5051694;28;20426;-85
2022/08/02 10:51:02;;;;;;;4.35;1.88;;;27.10;91.60;;;;;;5034724;28;20372;-87
2022/08/02 10:53:29;;;;;;;5.13;1.85;;;26.80;91.90;;;;;;5073804;28;20465;-84
2022/08/02 10:55:58;;;;;;;5.17;1.80;;;26.70;91.80;;;;;;5057611;28;20896;-86
2022/08/02 10:58:31;;;;;;;4.63;1.98;;;26.60;91.80;;;;;;5056810;28;20449;-84
2022/08/02 11:01:01;;;;;;;4.38;1.77;;;26.50;92.50;;;;;;5058934;28;20724;-85
2022/08/02 11:03:27;;;;;;;5.35;1.77;;;26.60;92.40;;;;;;5058211;28;20362;-84
2022/08/02 11:06:02;;;;;;;6.18;1.75;;;26.60;91.70;;;;;;5059749;28;20797;-87
2022/08/02 11:08:28;;;;;;;5.95;1.90;;;26.70;92.00;;;;;;5058041;28;20382;-87
2022/08/02 11:11:09;;;;;;;5.47;1.70;;;26.70;91.90;;;;;;5059416;28;20406;-87
2022/08/02 11:14:01;;;;;;;5.32;1.60;;;26.70;92.60;;;;;;5058971;28;20374;-84
2022/08/02 11:17:04;;;;;;;3.78;1.63;;;26.80;91.20;;;;;;5058900;28;20440;-87
2022/08/02 11:19:33;;;;;;;6.33;1.43;;;27.00;91.20;;;;;;4958827;28;20419;-85
2022/08/02 11:22:00;;;;;;;5.70;1.57;;;27.00;91.40;;;;;;5030549;28;20375;-82
2022/08/02 11:24:29;;;;;;;4.35;1.77;;;27.10;90.90;;;;;;5040166;28;20372;-84
2022/08/02 11:26:59;;;;;;;4.10;1.70;;;27.10;90.40;;;;;;5039958;28;20892;-86
2022/08/02 11:29:35;;;;;;;4.63;1.50;;;27.00;91.80;;;;;;5037378;28;20379;-85
2022/08/02 11:32:00;;;;;;;3.37;1.77;;;26.90;91.80;;;;;;5068347;28;20373;-85
2022/08/02 11:34:27;;;;;;;4.25;1.65;;;26.90;92.30;;;;;;5057048;28;20378;-86
2022/08/02 11:36:53;;;;;;;5.70;1.73;;;27.00;91.90;;;;;;5057406;28;20390;-85
2022/08/02 11:39:21;;;;;;;5.75;1.67;;;27.10;92.20;;;;;;5060742;28;20377;-86
2022/08/02 11:41:58;;;;;;;7.72;1.83;;;27.20;92.10;;;;;;5076496;28;20396;-85
2022/08/02 11:44:29;;;;;;;5.72;1.80;;;27.20;91.90;;;;;;5058446;28;20463;-86
2022/08/02 11:46:57;;;;;;;5.35;1.80;;;27.20;92.50;;;;;;5060228;28;20885;-86
2022/08/02 11:49:22;;;;;;;4.65;1.70;;;27.20;91.90;;;;;;5057762;28;20402;-84
2022/08/02 11:52:06;;;;;;;3.30;1.70;;;27.30;91.20;;;;;;5058667;28;20400;-87
2022/08/02 11:54:35;;;;;;;5.20;1.80;;;27.00;91.30;;;;;;5058476;28;20461;-87
2022/08/02 11:57:10;;;;;;;6.35;2.17;;;26.90;91.30;;;;;;5057642;28;20396;-85
2022/08/02 11:59:40;;;;;;;4.18;1.55;;;26.90;91.90;;;;;;5046885;28;20446;-86
2022/08/02 12:02:07;;;;;;;4.47;1.80;;;27.00;91.20;;;;;;5054633;28;20372;-88
2022/08/02 12:04:33;;;;;;;6.80;1.92;;;27.10;90.80;;;;;;5054933;28;20399;-86
2022/08/02 12:07:00;;;;;;;4.78;1.52;;;27.10;90.90;;;;;;5036810;28;20384;-86
2022/08/02 12:09:31;;;;;;;4.37;1.70;;;27.00;91.30;;;;;;5036555;28;20372;-88
2022/08/02 12:11:58;;;;;;;4.20;1.88;;;27.10;90.80;;;;;;5065858;28;20425;-86
2022/08/02 12:14:26;;;;;;;5.00;1.50;;;27.10;90.40;;;;;;5073384;28;20377;-85
2022/08/02 12:19:37;;;;;;;6.27;1.73;;;27.20;90.10;;;;;;5072799;28;20389;-88
2022/08/02 12:22:08;;;;;;;7.32;1.90;;;27.30;90.40;;;;;;5055137;28;20389;-88
2022/08/02 12:24:35;;;;;;;4.90;1.83;;;27.20;90.00;;;;;;5054753;28;20403;-87
2022/08/02 12:27:01;;;;;;;7.57;2.35;;;27.30;90.10;;;;;;5054485;28;20382;-89
2022/08/02 12:29:34;;;;;;;6.77;1.90;;;27.50;90.20;;;;;;5054580;28;20404;-84
2022/08/02 12:32:04;;;;;;;4.18;1.75;;;27.40;87.50;;;;;;5071898;28;20855;-86
2022/08/02 12:34:31;;;;;;;3.38;1.50;;;27.30;87.80;;;;;;5058945;28;20397;-84
2022/08/02 12:36:59;;;;;;;5.03;1.73;;;27.30;89.60;;;;;;5060239;28;20440;-86
2022/08/02 12:39:35;;;;;;;4.15;1.83;;;27.30;87.20;;;;;;5062376;28;20425;-86
2022/08/02 12:42:01;;;;;;;4.60;1.60;;;27.10;89.20;;;;;;5059393;28;20905;-88
2022/08/02 12:44:27;;;;;;;5.32;1.70;;;27.10;87.40;;;;;;5074002;28;20378;-88
2022/08/02 12:47:00;;;;;;;4.32;1.63;;;27.10;88.80;;;;;;5073960;28;20373;-88
2022/08/02 12:49:26;;;;;;;6.40;1.52;;;27.10;86.40;;;;;;5056928;28;20374;-87
2022/08/02 12:51:52;;;;;;;3.50;1.53;;;27.30;84.90;;;;;;5073831;28;20907;-87
2022/08/02 12:54:21;;;;;;;3.63;1.50;;;27.30;85.00;;;;;;5056036;28;20374;-89
2022/08/02 12:56:47;;;;;;;4.10;1.50;;;27.20;83.70;;;;;;5055753;28;20398;-87
2022/08/02 12:59:14;;;;;;;2.90;1.52;;;27.20;86.00;;;;;;5074695;28;20362;-87
2022/08/02 13:01:40;;;;;;;4.35;1.90;;;27.40;85.80;;;;;;5056828;28;20428;-85